Terminal Aerodrome Forecast
Issued by NWS Quad Cities IA IL

Home | Current Version | Previous Version | Text Only | Print | Product List | Glossary On
Versions: 1 2 3 4 5 6 7 8 9 10 11 12 13 14 15 16 17 18 19 20 21
336
FTUS43 KDVN 201757 AAA
TAFDBQ
TAF AMD
KDBQ 201757Z 2018/2118 16015G22KT 5SM BR OVC060
     FM202000 16016G22KT 6SM BR VCSH OVC030
     FM202300 17016G22KT 5SM SHRA VCTS OVC015CB
     FM210300 22011KT 3SM -RA BR OVC025
     FM210600 23008KT 4SM BR OVC008=

USA.gov is the U.S. government's official web portal to all federal, state and local government web resources and services.